sensor_id;sensor_type;location;lat;lon;timestamp;pressure;altitude;pressure_sealevel;temperature
7389;BMP180;3735;50.136;11.062;2022-12-07T00:01:24;98080.00;;;2.10
7389;BMP180;3735;50.136;11.062;2022-12-07T00:03:54;98088.00;;;2.10
7389;BMP180;3735;50.136;11.062;2022-12-07T00:06:22;98081.00;;;2.10
7389;BMP180;3735;50.136;11.062;2022-12-07T00:08:49;98081.00;;;2.10
7389;BMP180;3735;50.136;11.062;2022-12-07T00:11:19;98068.00;;;2.10
7389;BMP180;3735;50.136;11.062;2022-12-07T00:13:46;98079.00;;;2.10
7389;BMP180;3735;50.136;11.062;2022-12-07T00:16:15;98074.00;;;2.10
7389;BMP180;3735;50.136;11.062;2022-12-07T00:18:43;98077.00;;;2.10
7389;BMP180;3735;50.136;11.062;2022-12-07T00:21:21;98078.00;;;2.10
7389;BMP180;3735;50.136;11.062;2022-12-07T00:23:50;98073.00;;;2.10
7389;BMP180;3735;50.136;11.062;2022-12-07T00:26:38;98071.00;;;2.10
7389;BMP180;3735;50.136;11.062;2022-12-07T00:29:08;98072.00;;;2.10
7389;BMP180;3735;50.136;11.062;2022-12-07T00:31:37;98058.00;;;2.10
7389;BMP180;3735;50.136;11.062;2022-12-07T00:34:13;98064.00;;;2.10
7389;BMP180;3735;50.136;11.062;2022-12-07T00:36:39;98055.00;;;2.10
7389;BMP180;3735;50.136;11.062;2022-12-07T00:39:05;98065.00;;;2.10
7389;BMP180;3735;50.136;11.062;2022-12-07T00:41:31;98062.00;;;2.10
7389;BMP180;3735;50.136;11.062;2022-12-07T00:43:57;98057.00;;;2.10
7389;BMP180;3735;50.136;11.062;2022-12-07T00:46:24;98054.00;;;2.10
7389;BMP180;3735;50.136;11.062;2022-12-07T00:48:52;98060.00;;;2.10
7389;BMP180;3735;50.136;11.062;2022-12-07T00:51:21;98046.00;;;2.10
7389;BMP180;3735;50.136;11.062;2022-12-07T00:53:48;98018.00;;;2.10
7389;BMP180;3735;50.136;11.062;2022-12-07T00:56:17;98027.00;;;2.10
7389;BMP180;3735;50.136;11.062;2022-12-07T00:58:43;98022.00;;;2.10
7389;BMP180;3735;50.136;11.062;2022-12-07T01:01:10;98016.00;;;2.10
7389;BMP180;3735;50.136;11.062;2022-12-07T01:03:37;98024.00;;;2.20
7389;BMP180;3735;50.136;11.062;2022-12-07T01:06:04;98023.00;;;2.10
7389;BMP180;3735;50.136;11.062;2022-12-07T01:08:30;98008.00;;;2.10
7389;BMP180;3735;50.136;11.062;2022-12-07T01:11:02;98024.00;;;2.10
7389;BMP180;3735;50.136;11.062;2022-12-07T01:13:28;98004.00;;;2.20
7389;BMP180;3735;50.136;11.062;2022-12-07T01:15:58;98009.00;;;2.20
7389;BMP180;3735;50.136;11.062;2022-12-07T01:18:30;98014.00;;;2.20
7389;BMP180;3735;50.136;11.062;2022-12-07T01:21:13;98023.00;;;2.20
7389;BMP180;3735;50.136;11.062;2022-12-07T01:23:39;98004.00;;;2.20
7389;BMP180;3735;50.136;11.062;2022-12-07T01:26:10;97998.00;;;2.20
7389;BMP180;3735;50.136;11.062;2022-12-07T01:28:36;98007.00;;;2.20
7389;BMP180;3735;50.136;11.062;2022-12-07T01:31:05;98011.00;;;2.20
7389;BMP180;3735;50.136;11.062;2022-12-07T01:33:35;97994.00;;;2.20
7389;BMP180;3735;50.136;11.062;2022-12-07T01:36:07;98003.00;;;2.20
7389;BMP180;3735;50.136;11.062;2022-12-07T01:38:33;98008.00;;;2.20
7389;BMP180;3735;50.136;11.062;2022-12-07T01:41:01;98016.00;;;2.20
7389;BMP180;3735;50.136;11.062;2022-12-07T01:43:29;98001.00;;;2.20
7389;BMP180;3735;50.136;11.062;2022-12-07T01:45:56;98005.00;;;2.20
7389;BMP180;3735;50.136;11.062;2022-12-07T01:48:28;98000.00;;;2.20
7389;BMP180;3735;50.136;11.062;2022-12-07T01:51:01;98009.00;;;2.30
7389;BMP180;3735;50.136;11.062;2022-12-07T01:53:30;98013.00;;;2.30
7389;BMP180;3735;50.136;11.062;2022-12-07T01:55:59;98011.00;;;2.30
7389;BMP180;3735;50.136;11.062;2022-12-07T01:58:25;98017.00;;;2.30
7389;BMP180;3735;50.136;11.062;2022-12-07T02:00:51;98022.00;;;2.30
7389;BMP180;3735;50.136;11.062;2022-12-07T02:03:25;98005.00;;;2.20
7389;BMP180;3735;50.136;11.062;2022-12-07T02:05:53;97999.00;;;2.20
7389;BMP180;3735;50.136;11.062;2022-12-07T02:08:20;98005.00;;;2.20
7389;BMP180;3735;50.136;11.062;2022-12-07T02:10:46;98000.00;;;2.20
7389;BMP180;3735;50.136;11.062;2022-12-07T02:13:20;97996.00;;;2.20
7389;BMP180;3735;50.136;11.062;2022-12-07T02:30:28;98000.00;;;2.20
7389;BMP180;3735;50.136;11.062;2022-12-07T02:33:24;97959.00;;;2.20
7389;BMP180;3735;50.136;11.062;2022-12-07T02:38:55;97976.00;;;2.20
7389;BMP180;3735;50.136;11.062;2022-12-07T02:41:40;97984.00;;;2.20
7389;BMP180;3735;50.136;11.062;2022-12-07T02:44:13;97981.00;;;2.20
7389;BMP180;3735;50.136;11.062;2022-12-07T02:46:48;97975.00;;;2.10
7389;BMP180;3735;50.136;11.062;2022-12-07T02:49:16;97971.00;;;2.10
7389;BMP180;3735;50.136;11.062;2022-12-07T02:51:45;97969.00;;;2.10
7389;BMP180;3735;50.136;11.062;2022-12-07T02:54:18;97982.00;;;2.10
7389;BMP180;3735;50.136;11.062;2022-12-07T03:03:08;97980.00;;;2.20
7389;BMP180;3735;50.136;11.062;2022-12-07T03:06:10;97980.00;;;2.20
7389;BMP180;3735;50.136;11.062;2022-12-07T03:08:48;97974.00;;;2.20
7389;BMP180;3735;50.136;11.062;2022-12-07T03:11:33;97966.00;;;2.30
7389;BMP180;3735;50.136;11.062;2022-12-07T03:14:31;97960.00;;;2.20
7389;BMP180;3735;50.136;11.062;2022-12-07T03:17:17;97960.00;;;2.30
7389;BMP180;3735;50.136;11.062;2022-12-07T03:19:46;97957.00;;;2.20
7389;BMP180;3735;50.136;11.062;2022-12-07T03:22:14;97964.00;;;2.30
7389;BMP180;3735;50.136;11.062;2022-12-07T03:24:57;97967.00;;;2.30
7389;BMP180;3735;50.136;11.062;2022-12-07T03:27:30;97965.00;;;2.20
7389;BMP180;3735;50.136;11.062;2022-12-07T03:30:10;97945.00;;;2.20
7389;BMP180;3735;50.136;11.062;2022-12-07T03:33:12;97969.00;;;2.20
7389;BMP180;3735;50.136;11.062;2022-12-07T03:35:52;97964.00;;;2.20
7389;BMP180;3735;50.136;11.062;2022-12-07T03:38:38;97965.00;;;2.20
7389;BMP180;3735;50.136;11.062;2022-12-07T03:41:25;97961.00;;;2.30
7389;BMP180;3735;50.136;11.062;2022-12-07T03:43:54;97964.00;;;2.20
7389;BMP180;3735;50.136;11.062;2022-12-07T03:55:08;97969.00;;;2.20
7389;BMP180;3735;50.136;11.062;2022-12-07T03:57:37;97970.00;;;2.20
7389;BMP180;3735;50.136;11.062;2022-12-07T04:00:07;97956.00;;;2.20
7389;BMP180;3735;50.136;11.062;2022-12-07T04:02:34;97972.00;;;2.20
7389;BMP180;3735;50.136;11.062;2022-12-07T04:04:59;97972.00;;;2.20
7389;BMP180;3735;50.136;11.062;2022-12-07T04:07:25;97971.00;;;2.10
7389;BMP180;3735;50.136;11.062;2022-12-07T04:09:51;97967.00;;;2.00
7389;BMP180;3735;50.136;11.062;2022-12-07T04:12:17;97967.00;;;1.90
7389;BMP180;3735;50.136;11.062;2022-12-07T04:14:43;97956.00;;;1.80
7389;BMP180;3735;50.136;11.062;2022-12-07T04:17:08;97951.00;;;1.80
7389;BMP180;3735;50.136;11.062;2022-12-07T04:19:35;97964.00;;;1.90
7389;BMP180;3735;50.136;11.062;2022-12-07T04:22:05;97951.00;;;1.80
7389;BMP180;3735;50.136;11.062;2022-12-07T04:24:33;97948.00;;;1.80
7389;BMP180;3735;50.136;11.062;2022-12-07T04:26:58;97935.00;;;1.80
7389;BMP180;3735;50.136;11.062;2022-12-07T04:29:25;97936.00;;;1.70
7389;BMP180;3735;50.136;11.062;2022-12-07T04:31:52;97942.00;;;1.70
7389;BMP180;3735;50.136;11.062;2022-12-07T04:34:19;97944.00;;;1.80
7389;BMP180;3735;50.136;11.062;2022-12-07T04:36:46;97941.00;;;1.80
7389;BMP180;3735;50.136;11.062;2022-12-07T04:39:31;97942.00;;;1.80
7389;BMP180;3735;50.136;11.062;2022-12-07T04:41:58;97940.00;;;1.80
7389;BMP180;3735;50.136;11.062;2022-12-07T04:44:26;97936.00;;;1.90
7389;BMP180;3735;50.136;11.062;2022-12-07T04:46:53;97940.00;;;1.80
7389;BMP180;3735;50.136;11.062;2022-12-07T04:49:19;97932.00;;;1.90
7389;BMP180;3735;50.136;11.062;2022-12-07T04:51:46;97938.00;;;1.90
7389;BMP180;3735;50.136;11.062;2022-12-07T04:54:14;97928.00;;;1.90
7389;BMP180;3735;50.136;11.062;2022-12-07T04:56:41;97929.00;;;2.00
7389;BMP180;3735;50.136;11.062;2022-12-07T04:59:07;97940.00;;;1.90
7389;BMP180;3735;50.136;11.062;2022-12-07T05:01:33;97940.00;;;2.00
7389;BMP180;3735;50.136;11.062;2022-12-07T05:03:59;97937.00;;;1.90
7389;BMP180;3735;50.136;11.062;2022-12-07T05:06:25;97939.00;;;1.90
7389;BMP180;3735;50.136;11.062;2022-12-07T05:08:51;97937.00;;;1.80
7389;BMP180;3735;50.136;11.062;2022-12-07T05:11:17;97948.00;;;1.70
7389;BMP180;3735;50.136;11.062;2022-12-07T05:14:05;97938.00;;;1.60
7389;BMP180;3735;50.136;11.062;2022-12-07T05:16:31;97943.00;;;1.50
7389;BMP180;3735;50.136;11.062;2022-12-07T05:18:57;97923.00;;;1.50
7389;BMP180;3735;50.136;11.062;2022-12-07T05:21:23;97935.00;;;1.50
7389;BMP180;3735;50.136;11.062;2022-12-07T05:23:49;97932.00;;;1.50
7389;BMP180;3735;50.136;11.062;2022-12-07T05:26:15;97938.00;;;1.60
7389;BMP180;3735;50.136;11.062;2022-12-07T05:28:41;97939.00;;;1.60
7389;BMP180;3735;50.136;11.062;2022-12-07T05:31:06;97924.00;;;1.60
7389;BMP180;3735;50.136;11.062;2022-12-07T05:33:32;97920.00;;;1.60
7389;BMP180;3735;50.136;11.062;2022-12-07T05:35:58;97929.00;;;1.70
7389;BMP180;3735;50.136;11.062;2022-12-07T05:38:24;97928.00;;;1.80
7389;BMP180;3735;50.136;11.062;2022-12-07T05:40:50;97926.00;;;1.80
7389;BMP180;3735;50.136;11.062;2022-12-07T05:43:16;97925.00;;;1.80
7389;BMP180;3735;50.136;11.062;2022-12-07T05:45:42;97917.00;;;1.80
7389;BMP180;3735;50.136;11.062;2022-12-07T05:48:07;97932.00;;;1.90
7389;BMP180;3735;50.136;11.062;2022-12-07T05:50:33;97923.00;;;1.90
7389;BMP180;3735;50.136;11.062;2022-12-07T05:52:59;97923.00;;;1.80
7389;BMP180;3735;50.136;11.062;2022-12-07T05:55:25;97904.00;;;1.90
7389;BMP180;3735;50.136;11.062;2022-12-07T05:57:51;97911.00;;;1.90
7389;BMP180;3735;50.136;11.062;2022-12-07T06:00:35;97904.00;;;1.90
7389;BMP180;3735;50.136;11.062;2022-12-07T06:03:01;97904.00;;;1.90
7389;BMP180;3735;50.136;11.062;2022-12-07T06:05:27;97909.00;;;1.90
7389;BMP180;3735;50.136;11.062;2022-12-07T06:07:52;97900.00;;;2.00
7389;BMP180;3735;50.136;11.062;2022-12-07T06:10:18;97911.00;;;1.90
7389;BMP180;3735;50.136;11.062;2022-12-07T06:12:44;97913.00;;;2.00
7389;BMP180;3735;50.136;11.062;2022-12-07T06:15:12;97914.00;;;2.00
7389;BMP180;3735;50.136;11.062;2022-12-07T06:17:39;97912.00;;;2.00
7389;BMP180;3735;50.136;11.062;2022-12-07T06:20:06;97905.00;;;2.00
7389;BMP180;3735;50.136;11.062;2022-12-07T06:22:32;97915.00;;;2.00
7389;BMP180;3735;50.136;11.062;2022-12-07T06:24:57;97916.00;;;2.00
7389;BMP180;3735;50.136;11.062;2022-12-07T06:27:23;97910.00;;;2.10
7389;BMP180;3735;50.136;11.062;2022-12-07T06:29:49;97920.00;;;2.10
7389;BMP180;3735;50.136;11.062;2022-12-07T06:32:15;97919.00;;;2.10
7389;BMP180;3735;50.136;11.062;2022-12-07T06:34:40;97921.00;;;2.10
7389;BMP180;3735;50.136;11.062;2022-12-07T06:37:06;97908.00;;;2.10
7389;BMP180;3735;50.136;11.062;2022-12-07T06:39:32;97916.00;;;2.20
7389;BMP180;3735;50.136;11.062;2022-12-07T06:41:58;97899.00;;;2.10
7389;BMP180;3735;50.136;11.062;2022-12-07T06:44:25;97906.00;;;2.10
7389;BMP180;3735;50.136;11.062;2022-12-07T06:46:51;97916.00;;;2.10
7389;BMP180;3735;50.136;11.062;2022-12-07T06:49:17;97905.00;;;2.20
7389;BMP180;3735;50.136;11.062;2022-12-07T06:51:43;97920.00;;;2.10
7389;BMP180;3735;50.136;11.062;2022-12-07T06:54:12;97914.00;;;2.20
7389;BMP180;3735;50.136;11.062;2022-12-07T06:56:39;97917.00;;;2.20
7389;BMP180;3735;50.136;11.062;2022-12-07T06:59:06;97915.00;;;2.20
7389;BMP180;3735;50.136;11.062;2022-12-07T07:01:34;97917.00;;;2.20
7389;BMP180;3735;50.136;11.062;2022-12-07T07:04:00;97921.00;;;2.20
7389;BMP180;3735;50.136;11.062;2022-12-07T07:06:26;97923.00;;;2.30
7389;BMP180;3735;50.136;11.062;2022-12-07T07:08:52;97926.00;;;2.30
7389;BMP180;3735;50.136;11.062;2022-12-07T07:11:18;97927.00;;;2.30
7389;BMP180;3735;50.136;11.062;2022-12-07T07:13:45;97920.00;;;2.40
7389;BMP180;3735;50.136;11.062;2022-12-07T07:16:12;97927.00;;;2.40
7389;BMP180;3735;50.136;11.062;2022-12-07T07:18:37;97921.00;;;2.40
7389;BMP180;3735;50.136;11.062;2022-12-07T07:21:04;97921.00;;;2.40
7389;BMP180;3735;50.136;11.062;2022-12-07T07:23:30;97924.00;;;2.40
7389;BMP180;3735;50.136;11.062;2022-12-07T07:25:56;97929.00;;;2.40
7389;BMP180;3735;50.136;11.062;2022-12-07T07:28:22;97933.00;;;2.40
7389;BMP180;3735;50.136;11.062;2022-12-07T07:30:48;97930.00;;;2.40
7389;BMP180;3735;50.136;11.062;2022-12-07T07:33:14;97930.00;;;2.50
7389;BMP180;3735;50.136;11.062;2022-12-07T07:35:41;97917.00;;;2.50
7389;BMP180;3735;50.136;11.062;2022-12-07T07:38:07;97923.00;;;2.50
7389;BMP180;3735;50.136;11.062;2022-12-07T07:40:33;97934.00;;;2.50
7389;BMP180;3735;50.136;11.062;2022-12-07T07:42:59;97920.00;;;2.50
7389;BMP180;3735;50.136;11.062;2022-12-07T07:45:26;97918.00;;;2.60
7389;BMP180;3735;50.136;11.062;2022-12-07T07:47:52;97928.00;;;2.60
7389;BMP180;3735;50.136;11.062;2022-12-07T07:50:19;97924.00;;;2.60
7389;BMP180;3735;50.136;11.062;2022-12-07T07:52:46;97929.00;;;2.60
7389;BMP180;3735;50.136;11.062;2022-12-07T07:55:12;97923.00;;;2.70
7389;BMP180;3735;50.136;11.062;2022-12-07T07:57:39;97927.00;;;2.70
7389;BMP180;3735;50.136;11.062;2022-12-07T08:00:09;97938.00;;;2.70
7389;BMP180;3735;50.136;11.062;2022-12-07T08:02:36;97935.00;;;2.70
7389;BMP180;3735;50.136;11.062;2022-12-07T08:05:02;97941.00;;;2.70
7389;BMP180;3735;50.136;11.062;2022-12-07T08:07:28;97944.00;;;2.70
7389;BMP180;3735;50.136;11.062;2022-12-07T08:09:53;97938.00;;;2.80
7389;BMP180;3735;50.136;11.062;2022-12-07T08:12:19;97943.00;;;2.80
7389;BMP180;3735;50.136;11.062;2022-12-07T08:14:45;97946.00;;;2.90
7389;BMP180;3735;50.136;11.062;2022-12-07T08:17:11;97950.00;;;2.90
7389;BMP180;3735;50.136;11.062;2022-12-07T08:19:38;97959.00;;;2.90
7389;BMP180;3735;50.136;11.062;2022-12-07T08:22:04;97944.00;;;2.90
7389;BMP180;3735;50.136;11.062;2022-12-07T08:24:30;97954.00;;;2.90
7389;BMP180;3735;50.136;11.062;2022-12-07T08:26:58;97954.00;;;2.90
7389;BMP180;3735;50.136;11.062;2022-12-07T08:29:23;97954.00;;;2.90
7389;BMP180;3735;50.136;11.062;2022-12-07T08:31:49;97950.00;;;2.90
7389;BMP180;3735;50.136;11.062;2022-12-07T08:34:15;97953.00;;;2.90
7389;BMP180;3735;50.136;11.062;2022-12-07T08:36:40;97950.00;;;3.00
7389;BMP180;3735;50.136;11.062;2022-12-07T08:39:06;97925.00;;;3.00
7389;BMP180;3735;50.136;11.062;2022-12-07T08:41:32;97954.00;;;3.00
7389;BMP180;3735;50.136;11.062;2022-12-07T08:43:58;97954.00;;;3.10
7389;BMP180;3735;50.136;11.062;2022-12-07T08:46:45;97930.00;;;3.10
7389;BMP180;3735;50.136;11.062;2022-12-07T08:49:27;97952.00;;;3.20
7389;BMP180;3735;50.136;11.062;2022-12-07T08:51:56;97949.00;;;3.20
7389;BMP180;3735;50.136;11.062;2022-12-07T08:54:22;97962.00;;;3.10
7389;BMP180;3735;50.136;11.062;2022-12-07T08:56:50;97955.00;;;3.20
7389;BMP180;3735;50.136;11.062;2022-12-07T08:59:19;97969.00;;;3.20
7389;BMP180;3735;50.136;11.062;2022-12-07T09:01:46;97966.00;;;3.20
7389;BMP180;3735;50.136;11.062;2022-12-07T09:04:11;97964.00;;;3.20
7389;BMP180;3735;50.136;11.062;2022-12-07T09:06:38;97976.00;;;3.30
7389;BMP180;3735;50.136;11.062;2022-12-07T09:09:04;97977.00;;;3.30
7389;BMP180;3735;50.136;11.062;2022-12-07T09:11:30;97968.00;;;3.30
7389;BMP180;3735;50.136;11.062;2022-12-07T09:13:56;97965.00;;;3.20
7389;BMP180;3735;50.136;11.062;2022-12-07T09:16:22;97970.00;;;3.30
7389;BMP180;3735;50.136;11.062;2022-12-07T09:18:48;97976.00;;;3.20
7389;BMP180;3735;50.136;11.062;2022-12-07T09:21:14;97976.00;;;3.30
7389;BMP180;3735;50.136;11.062;2022-12-07T09:23:42;97950.00;;;3.20
7389;BMP180;3735;50.136;11.062;2022-12-07T09:26:08;97974.00;;;3.30
7389;BMP180;3735;50.136;11.062;2022-12-07T09:28:34;97971.00;;;3.40
7389;BMP180;3735;50.136;11.062;2022-12-07T09:31:01;97977.00;;;3.30
7389;BMP180;3735;50.136;11.062;2022-12-07T09:33:27;97974.00;;;3.30
7389;BMP180;3735;50.136;11.062;2022-12-07T09:35:53;97970.00;;;3.50
7389;BMP180;3735;50.136;11.062;2022-12-07T09:38:20;97970.00;;;3.50
7389;BMP180;3735;50.136;11.062;2022-12-07T09:40:47;97974.00;;;3.60
7389;BMP180;3735;50.136;11.062;2022-12-07T09:43:17;97917.00;;;3.60
7389;BMP180;3735;50.136;11.062;2022-12-07T09:45:45;97960.00;;;3.60
7389;BMP180;3735;50.136;11.062;2022-12-07T09:48:33;97959.00;;;3.70
7389;BMP180;3735;50.136;11.062;2022-12-07T09:51:02;97954.00;;;3.60
7389;BMP180;3735;50.136;11.062;2022-12-07T09:53:37;97955.00;;;3.70
7389;BMP180;3735;50.136;11.062;2022-12-07T09:56:04;97958.00;;;3.60
7389;BMP180;3735;50.136;11.062;2022-12-07T09:58:32;97945.00;;;3.70
7389;BMP180;3735;50.136;11.062;2022-12-07T10:01:20;97950.00;;;3.80
7389;BMP180;3735;50.136;11.062;2022-12-07T10:03:54;97951.00;;;3.70
7389;BMP180;3735;50.136;11.062;2022-12-07T10:06:20;97951.00;;;3.80
7389;BMP180;3735;50.136;11.062;2022-12-07T10:08:46;97957.00;;;3.90
7389;BMP180;3735;50.136;11.062;2022-12-07T10:11:12;97951.00;;;3.90
7389;BMP180;3735;50.136;11.062;2022-12-07T10:13:52;97946.00;;;4.20
7389;BMP180;3735;50.136;11.062;2022-12-07T10:18:54;97936.00;;;4.10
7389;BMP180;3735;50.136;11.062;2022-12-07T10:21:26;97953.00;;;4.30
7389;BMP180;3735;50.136;11.062;2022-12-07T10:24:24;97946.00;;;4.30
7389;BMP180;3735;50.136;11.062;2022-12-07T10:26:53;97947.00;;;4.50
7389;BMP180;3735;50.136;11.062;2022-12-07T10:32:21;97932.00;;;4.70
7389;BMP180;3735;50.136;11.062;2022-12-07T10:34:49;97919.00;;;4.50
7389;BMP180;3735;50.136;11.062;2022-12-07T10:37:19;97939.00;;;4.50
7389;BMP180;3735;50.136;11.062;2022-12-07T10:39:53;97944.00;;;4.40
7389;BMP180;3735;50.136;11.062;2022-12-07T10:42:26;97944.00;;;4.40
7389;BMP180;3735;50.136;11.062;2022-12-07T10:45:18;97937.00;;;4.40
7389;BMP180;3735;50.136;11.062;2022-12-07T10:50:47;97923.00;;;4.40
7389;BMP180;3735;50.136;11.062;2022-12-07T10:53:50;97918.00;;;4.40
7389;BMP180;3735;50.136;11.062;2022-12-07T10:56:43;97920.00;;;4.50
7389;BMP180;3735;50.136;11.062;2022-12-07T11:00:01;97922.00;;;4.40
7389;BMP180;3735;50.136;11.062;2022-12-07T11:09:00;97919.00;;;4.40
7389;BMP180;3735;50.136;11.062;2022-12-07T11:16:55;97916.00;;;4.40
7389;BMP180;3735;50.136;11.062;2022-12-07T11:19:35;97901.00;;;4.50
7389;BMP180;3735;50.136;11.062;2022-12-07T11:22:23;97902.00;;;4.50
7389;BMP180;3735;50.136;11.062;2022-12-07T11:39:22;97881.00;;;4.90
7389;BMP180;3735;50.136;11.062;2022-12-07T11:42:01;97866.00;;;4.80
7389;BMP180;3735;50.136;11.062;2022-12-07T11:44:49;97870.00;;;4.90
7389;BMP180;3735;50.136;11.062;2022-12-07T11:50:03;97849.00;;;7.20
7389;BMP180;3735;50.136;11.062;2022-12-07T11:52:58;97857.00;;;7.10
7389;BMP180;3735;50.136;11.062;2022-12-07T11:55:54;97854.00;;;6.80
7389;BMP180;3735;50.136;11.062;2022-12-07T12:03:49;97854.00;;;6.30
7389;BMP180;3735;50.136;11.062;2022-12-07T12:06:16;97846.00;;;6.00
7389;BMP180;3735;50.136;11.062;2022-12-07T12:12:21;97861.00;;;5.40
7389;BMP180;3735;50.136;11.062;2022-12-07T12:15:15;97855.00;;;5.40
7389;BMP180;3735;50.136;11.062;2022-12-07T12:20:31;97854.00;;;5.10
7389;BMP180;3735;50.136;11.062;2022-12-07T12:23:37;97853.00;;;5.00
7389;BMP180;3735;50.136;11.062;2022-12-07T12:26:14;97844.00;;;5.00
7389;BMP180;3735;50.136;11.062;2022-12-07T12:28:52;97852.00;;;5.00
7389;BMP180;3735;50.136;11.062;2022-12-07T12:33:53;97840.00;;;5.00
7389;BMP180;3735;50.136;11.062;2022-12-07T12:39:15;97845.00;;;5.00
7389;BMP180;3735;50.136;11.062;2022-12-07T12:46:58;97849.00;;;4.70
7389;BMP180;3735;50.136;11.062;2022-12-07T12:51:55;97839.00;;;5.00
7389;BMP180;3735;50.136;11.062;2022-12-07T12:54:32;97825.00;;;4.90
7389;BMP180;3735;50.136;11.062;2022-12-07T13:05:02;97834.00;;;4.90
7389;BMP180;3735;50.136;11.062;2022-12-07T13:18:41;97817.00;;;4.70
7389;BMP180;3735;50.136;11.062;2022-12-07T13:29:20;97816.00;;;4.80
7389;BMP180;3735;50.136;11.062;2022-12-07T13:31:54;97816.00;;;5.20
7389;BMP180;3735;50.136;11.062;2022-12-07T13:34:39;97813.00;;;5.30
7389;BMP180;3735;50.136;11.062;2022-12-07T13:37:12;97813.00;;;5.30
7389;BMP180;3735;50.136;11.062;2022-12-07T13:39:49;97819.00;;;5.30
7389;BMP180;3735;50.136;11.062;2022-12-07T13:42:26;97816.00;;;5.30
7389;BMP180;3735;50.136;11.062;2022-12-07T13:44:53;97801.00;;;5.20
7389;BMP180;3735;50.136;11.062;2022-12-07T13:47:32;97809.00;;;5.30
7389;BMP180;3735;50.136;11.062;2022-12-07T13:50:00;97813.00;;;5.40
7389;BMP180;3735;50.136;11.062;2022-12-07T13:55:14;97817.00;;;5.00
7389;BMP180;3735;50.136;11.062;2022-12-07T13:57:41;97811.00;;;4.90
7389;BMP180;3735;50.136;11.062;2022-12-07T14:00:26;97810.00;;;4.80
7389;BMP180;3735;50.136;11.062;2022-12-07T14:03:28;97814.00;;;4.50
7389;BMP180;3735;50.136;11.062;2022-12-07T14:06:13;97821.00;;;4.50
7389;BMP180;3735;50.136;11.062;2022-12-07T14:08:40;97823.00;;;4.40
7389;BMP180;3735;50.136;11.062;2022-12-07T14:11:14;97821.00;;;4.40
7389;BMP180;3735;50.136;11.062;2022-12-07T14:13:56;97830.00;;;4.40
7389;BMP180;3735;50.136;11.062;2022-12-07T14:16:34;97821.00;;;4.40
7389;BMP180;3735;50.136;11.062;2022-12-07T14:19:04;97824.00;;;4.40
7389;BMP180;3735;50.136;11.062;2022-12-07T14:21:33;97822.00;;;4.30
7389;BMP180;3735;50.136;11.062;2022-12-07T14:24:19;97828.00;;;4.20
7389;BMP180;3735;50.136;11.062;2022-12-07T14:26:50;97801.00;;;4.30
7389;BMP180;3735;50.136;11.062;2022-12-07T14:31:53;97819.00;;;4.20
7389;BMP180;3735;50.136;11.062;2022-12-07T14:34:21;97822.00;;;4.20
7389;BMP180;3735;50.136;11.062;2022-12-07T14:36:48;97807.00;;;4.20
7389;BMP180;3735;50.136;11.062;2022-12-07T14:39:13;97826.00;;;4.20
7389;BMP180;3735;50.136;11.062;2022-12-07T14:41:39;97825.00;;;4.20
7389;BMP180;3735;50.136;11.062;2022-12-07T14:44:20;97825.00;;;4.20
7389;BMP180;3735;50.136;11.062;2022-12-07T14:46:50;97827.00;;;4.30
7389;BMP180;3735;50.136;11.062;2022-12-07T14:49:16;97825.00;;;4.20
7389;BMP180;3735;50.136;11.062;2022-12-07T14:51:45;97822.00;;;3.90
7389;BMP180;3735;50.136;11.062;2022-12-07T14:54:17;97824.00;;;3.70
7389;BMP180;3735;50.136;11.062;2022-12-07T14:56:45;97789.00;;;3.60
7389;BMP180;3735;50.136;11.062;2022-12-07T14:59:16;97808.00;;;3.40
7389;BMP180;3735;50.136;11.062;2022-12-07T15:01:42;97811.00;;;3.30
7389;BMP180;3735;50.136;11.062;2022-12-07T15:04:08;97818.00;;;3.20
7389;BMP180;3735;50.136;11.062;2022-12-07T15:06:35;97817.00;;;3.00
7389;BMP180;3735;50.136;11.062;2022-12-07T15:09:01;97819.00;;;2.80
7389;BMP180;3735;50.136;11.062;2022-12-07T15:11:27;97816.00;;;2.60
7389;BMP180;3735;50.136;11.062;2022-12-07T15:13:53;97814.00;;;2.50
7389;BMP180;3735;50.136;11.062;2022-12-07T15:16:35;97820.00;;;2.50
7389;BMP180;3735;50.136;11.062;2022-12-07T15:19:02;97806.00;;;2.60
7389;BMP180;3735;50.136;11.062;2022-12-07T15:21:28;97807.00;;;2.60
7389;BMP180;3735;50.136;11.062;2022-12-07T15:23:54;97807.00;;;2.70
7389;BMP180;3735;50.136;11.062;2022-12-07T15:26:19;97797.00;;;2.80
7389;BMP180;3735;50.136;11.062;2022-12-07T15:28:45;97800.00;;;2.90
7389;BMP180;3735;50.136;11.062;2022-12-07T15:31:16;97801.00;;;2.90
7389;BMP180;3735;50.136;11.062;2022-12-07T15:33:43;97797.00;;;2.90
7389;BMP180;3735;50.136;11.062;2022-12-07T15:36:24;97799.00;;;2.80
7389;BMP180;3735;50.136;11.062;2022-12-07T15:38:51;97791.00;;;2.90
7389;BMP180;3735;50.136;11.062;2022-12-07T15:41:17;97805.00;;;2.90
7389;BMP180;3735;50.136;11.062;2022-12-07T15:43:46;97797.00;;;2.90
7389;BMP180;3735;50.136;11.062;2022-12-07T15:46:40;97800.00;;;2.90
7389;BMP180;3735;50.136;11.062;2022-12-07T15:49:18;97799.00;;;2.80
7389;BMP180;3735;50.136;11.062;2022-12-07T15:51:45;97789.00;;;2.80
7389;BMP180;3735;50.136;11.062;2022-12-07T15:54:30;97807.00;;;2.70
7389;BMP180;3735;50.136;11.062;2022-12-07T15:56:56;97798.00;;;2.60
7389;BMP180;3735;50.136;11.062;2022-12-07T15:59:22;97814.00;;;2.50
7389;BMP180;3735;50.136;11.062;2022-12-07T16:01:48;97806.00;;;2.50
7389;BMP180;3735;50.136;11.062;2022-12-07T16:04:14;97800.00;;;2.40
7389;BMP180;3735;50.136;11.062;2022-12-07T16:06:40;97791.00;;;2.30
7389;BMP180;3735;50.136;11.062;2022-12-07T16:09:07;97806.00;;;2.30
7389;BMP180;3735;50.136;11.062;2022-12-07T16:11:33;97808.00;;;2.30
7389;BMP180;3735;50.136;11.062;2022-12-07T16:13:59;97799.00;;;2.30
7389;BMP180;3735;50.136;11.062;2022-12-07T16:16:25;97790.00;;;2.40
7389;BMP180;3735;50.136;11.062;2022-12-07T16:18:51;97810.00;;;2.40
7389;BMP180;3735;50.136;11.062;2022-12-07T16:21:18;97807.00;;;2.30
7389;BMP180;3735;50.136;11.062;2022-12-07T16:23:44;97804.00;;;2.30
7389;BMP180;3735;50.136;11.062;2022-12-07T16:26:15;97802.00;;;2.20
7389;BMP180;3735;50.136;11.062;2022-12-07T16:28:41;97805.00;;;2.30
7389;BMP180;3735;50.136;11.062;2022-12-07T16:31:14;97808.00;;;2.30
7389;BMP180;3735;50.136;11.062;2022-12-07T16:33:42;97802.00;;;2.30
7389;BMP180;3735;50.136;11.062;2022-12-07T16:36:11;97798.00;;;2.40
7389;BMP180;3735;50.136;11.062;2022-12-07T16:38:37;97793.00;;;2.40
7389;BMP180;3735;50.136;11.062;2022-12-07T16:41:06;97782.00;;;2.50
7389;BMP180;3735;50.136;11.062;2022-12-07T16:43:32;97798.00;;;2.50
7389;BMP180;3735;50.136;11.062;2022-12-07T16:45:58;97806.00;;;2.60
7389;BMP180;3735;50.136;11.062;2022-12-07T16:48:25;97803.00;;;2.60
7389;BMP180;3735;50.136;11.062;2022-12-07T16:50:51;97799.00;;;2.70
7389;BMP180;3735;50.136;11.062;2022-12-07T16:53:20;97811.00;;;2.70
7389;BMP180;3735;50.136;11.062;2022-12-07T16:55:47;97810.00;;;2.70
7389;BMP180;3735;50.136;11.062;2022-12-07T16:58:15;97802.00;;;2.60
7389;BMP180;3735;50.136;11.062;2022-12-07T17:00:42;97800.00;;;2.80